Accueil
METAR-TAF:

METAR-TAF

Aéroports :

Berlin, Allemagne

Aéroport de Berlin-Tegel

latitude: 52-34N, longitude: 013-19E, altitude: 37 m

Observation

Le bulletin a été fait il y a 30 minutes, à 13:20 UTC
Vent 8 kt de sud-ouest, variant entre sud/sud-ouest et ouest
Température 14°C
Humidité 58%
Pression 1010 hPa
Visibilité 10 km ou plus
Quelques nuages à une hauteur de 3300 ft
Nuages fragmentés à une hauteur de 5000 ft

METAR: EDDT 221320Z 23008KT 200V260 9999 FEW033 BKN050 14/06 Q1010 NOSIG

Heure: 15:50 (13:50 UTC)

Prévision

Le bulletin a été fait il y a 2 heures et 50 minutes, à 11:00 UTC
Prévision valable du 22 à 12 UTC au 23 à 12 UTC
Vent 12 kt de sud-ouest
Visibilité 10 km ou plus
Nuages épars à une hauteur de 3000 ft
Evoluant progressivement
du 22 à 16 UTC au 22 à 18 UTC
Vent 7 kt de sud-ouest

TAF: EDDT 221100Z 2212/2312 23012KT 9999 SCT030 BECMG 2216/2218 22007KT

Observations et prévisions météorologiques de plus de 4000 aéroports (messages METAR et TAF).

Les stations disponibles sont représentées par des disques jaunes et rouges sur la carte.

Passer la souris dessus pour voir le nom de la station.

Cliquer dessus pour voir les observations et prévisions météorologiques.

Pour changer de carte: cliquez sur les boutons verts avec une croix noire pour zoomer, sur le bouton vert avec un tiret pour effectuer un zoom arrière, ou sur les flèches vertes pour les cartes adjacentes.


METAR-TAF: